createdAt,value
2023-07-18T00:00:38.415Z,26.22
2023-07-18T00:01:38.438Z,28.22
2023-07-18T00:02:38.405Z,30.27
2023-07-18T00:03:38.394Z,30.02
2023-07-18T00:04:38.430Z,29.23
2023-07-18T00:05:38.377Z,29.87
2023-07-18T00:06:38.348Z,30.22
2023-07-18T00:07:38.354Z,27.70
2023-07-18T00:08:38.350Z,28.64
2023-07-18T00:09:38.440Z,27.08
2023-07-18T00:10:38.339Z,27.38
2023-07-18T00:11:38.345Z,27.98
2023-07-18T00:12:38.323Z,28.09
2023-07-18T00:13:38.315Z,28.06
2023-07-18T00:14:38.322Z,29.17
2023-07-18T00:15:38.305Z,31.19
2023-07-18T00:16:38.391Z,31.01
2023-07-18T00:17:38.308Z,28.38
2023-07-18T00:18:38.269Z,26.10
2023-07-18T00:19:38.271Z,29.14
2023-07-18T00:20:38.265Z,30.88
2023-07-18T00:21:38.252Z,25.91
2023-07-18T00:22:38.388Z,28.78
2023-07-18T00:23:38.231Z,30.27
2023-07-18T00:24:38.257Z,28.28
2023-07-18T00:25:38.267Z,25.24
2023-07-18T00:26:38.218Z,28.75
2023-07-18T00:27:38.266Z,29.51
2023-07-18T00:28:38.218Z,26.25
2023-07-18T00:29:38.213Z,31.88
2023-07-18T00:30:38.222Z,26.78
2023-07-18T00:31:38.214Z,28.00
2023-07-18T00:32:38.224Z,32.88
2023-07-18T00:33:38.202Z,30.25
2023-07-18T00:34:38.200Z,27.98
2023-07-18T00:35:38.264Z,29.80
2023-07-18T00:36:38.170Z,30.84
2023-07-18T00:37:38.170Z,28.79
2023-07-18T00:38:38.167Z,28.79
2023-07-18T00:39:38.164Z,30.42
2023-07-18T00:40:38.145Z,27.63
2023-07-18T00:41:38.133Z,29.65
2023-07-18T00:42:38.119Z,31.84
2023-07-18T00:43:38.124Z,30.34
2023-07-18T00:44:38.148Z,27.48
2023-07-18T00:45:38.131Z,27.41
2023-07-18T00:46:38.241Z,27.41
2023-07-18T00:47:38.854Z,28.55
2023-07-18T00:49:56.667Z,25.00
2023-07-18T00:50:56.662Z,25.00
2023-07-18T00:51:56.619Z,25.00
2023-07-18T00:52:56.627Z,25.00
2023-07-18T00:53:56.636Z,25.00
2023-07-18T00:54:56.602Z,26.27
2023-07-18T00:55:56.611Z,26.65
2023-07-18T00:56:56.622Z,26.80
2023-07-18T00:57:56.604Z,27.69
2023-07-18T00:58:56.592Z,27.58
2023-07-18T00:59:56.572Z,26.03
2023-07-18T01:00:56.628Z,29.77
2023-07-18T01:01:56.564Z,31.65
2023-07-18T01:02:56.666Z,29.35
2023-07-18T01:03:56.568Z,30.41
2023-07-18T01:04:56.553Z,29.51
2023-07-18T01:05:56.540Z,28.14
2023-07-18T01:06:56.602Z,30.12
2023-07-18T01:07:56.514Z,28.18
2023-07-18T01:08:56.521Z,27.32
2023-07-18T01:09:56.519Z,27.86
2023-07-18T01:10:56.505Z,26.76
2023-07-18T01:11:56.545Z,27.48
2023-07-18T01:12:56.485Z,27.54
2023-07-18T01:13:56.489Z,27.19
2023-07-18T01:14:56.507Z,29.52
2023-07-18T01:15:56.504Z,28.51
2023-07-18T01:16:56.449Z,28.40
2023-07-18T01:17:56.534Z,27.89
2023-07-18T01:18:56.467Z,30.09
2023-07-18T01:19:56.443Z,30.67
2023-07-18T01:20:56.431Z,27.57
2023-07-18T01:21:56.418Z,29.76
2023-07-18T01:22:56.423Z,30.48
2023-07-18T01:23:56.414Z,27.81
2023-07-18T01:24:56.402Z,29.13
2023-07-18T01:25:56.399Z,28.42
2023-07-18T01:26:56.386Z,29.74
2023-07-18T01:27:56.386Z,26.43
2023-07-18T01:28:56.361Z,27.32
2023-07-18T01:29:56.360Z,29.28
2023-07-18T01:30:56.392Z,26.39
2023-07-18T01:31:56.356Z,29.61
2023-07-18T01:32:56.444Z,28.92
2023-07-18T01:33:56.354Z,26.28
2023-07-18T01:34:56.341Z,27.92
2023-07-18T01:35:56.842Z,27.50
2023-07-18T01:36:56.309Z,30.54
2023-07-18T01:37:56.312Z,28.89
2023-07-18T01:38:56.297Z,26.59
2023-07-18T01:39:56.324Z,29.36
2023-07-18T01:40:56.300Z,30.53
2023-07-18T01:41:56.292Z,29.80
2023-07-18T01:42:56.335Z,25.59
2023-07-18T01:43:56.265Z,28.05
2023-07-18T01:44:56.335Z,32.11
2023-07-18T01:45:56.257Z,27.47
2023-07-18T01:46:56.336Z,26.74
2023-07-18T01:47:56.278Z,27.49
2023-07-18T01:48:56.254Z,30.32
2023-07-18T01:49:56.235Z,27.72
2023-07-18T01:50:56.239Z,31.70
2023-07-18T01:51:56.205Z,31.14
2023-07-18T01:52:56.221Z,31.64
2023-07-18T01:53:56.188Z,27.67
2023-07-18T01:54:56.186Z,31.96
2023-07-18T01:55:56.189Z,29.25
2023-07-18T01:56:56.190Z,30.93
2023-07-18T01:57:56.177Z,30.14
2023-07-18T01:58:56.153Z,34.47
2023-07-18T01:59:56.152Z,30.46
2023-07-18T02:00:56.178Z,31.01
2023-07-18T02:01:56.173Z,30.10
2023-07-18T02:02:56.342Z,31.07
2023-07-18T02:03:56.126Z,31.30
2023-07-18T02:04:56.123Z,30.50
2023-07-18T02:05:56.101Z,31.30
2023-07-18T02:06:56.098Z,29.63
2023-07-18T02:07:56.093Z,26.65
2023-07-18T02:08:56.073Z,28.19
2023-07-18T02:09:56.108Z,25.13
2023-07-18T02:10:56.070Z,30.29
2023-07-18T02:11:56.063Z,27.21
2023-07-18T02:12:56.042Z,30.90
2023-07-18T02:13:56.042Z,28.48
2023-07-18T02:14:56.040Z,29.93
2023-07-18T02:15:56.020Z,28.39
2023-07-18T02:16:56.059Z,30.57
2023-07-18T02:17:56.136Z,26.20
2023-07-18T02:18:56.000Z,31.01
2023-07-18T02:19:56.014Z,31.01
2023-07-18T02:20:56.012Z,26.98
2023-07-18T02:21:55.994Z,29.54
2023-07-18T02:22:55.984Z,30.31
2023-07-18T02:23:55.994Z,27.40
2023-07-18T02:24:55.978Z,29.18
2023-07-18T02:25:55.973Z,30.40
2023-07-18T02:26:55.962Z,32.44
2023-07-18T02:27:55.932Z,27.53
2023-07-18T02:28:55.932Z,27.70
2023-07-18T02:29:55.924Z,31.24
2023-07-18T02:30:55.936Z,29.80
2023-07-18T02:31:55.905Z,27.07
2023-07-18T02:32:56.068Z,32.36
2023-07-18T02:33:55.919Z,27.32
2023-07-18T02:34:55.920Z,27.25
2023-07-18T02:35:55.907Z,27.95
2023-07-18T02:36:55.891Z,26.77
2023-07-18T02:37:55.875Z,28.07
2023-07-18T02:38:55.881Z,30.52
2023-07-18T02:39:55.869Z,30.55
2023-07-18T02:40:55.866Z,27.15
2023-07-18T02:41:55.861Z,29.77
2023-07-18T02:42:55.854Z,29.09
2023-07-18T02:43:55.837Z,28.67
2023-07-18T02:44:55.827Z,28.84
2023-07-18T02:45:55.825Z,28.23
2023-07-18T02:46:55.802Z,30.06
2023-07-18T02:47:55.874Z,24.72
2023-07-18T02:48:55.803Z,30.69
2023-07-18T02:49:55.791Z,25.00
2023-07-18T02:50:55.798Z,29.44
2023-07-18T02:51:55.775Z,27.47
2023-07-18T02:52:55.772Z,26.20
2023-07-18T02:53:55.775Z,27.84
2023-07-18T02:54:55.787Z,25.00
2023-07-18T02:55:55.746Z,30.63
2023-07-18T02:56:55.755Z,30.51
2023-07-18T02:57:55.723Z,26.72
2023-07-18T02:58:55.741Z,29.45
2023-07-18T02:59:55.731Z,30.84
2023-07-18T03:00:55.725Z,29.07
2023-07-18T03:01:55.765Z,28.50
2023-07-18T03:02:55.822Z,28.43
2023-07-18T03:03:55.818Z,29.28
2023-07-18T03:04:55.689Z,25.79
2023-07-18T03:05:55.692Z,27.64
2023-07-18T03:06:55.689Z,28.66
2023-07-18T03:07:55.673Z,30.39
2023-07-18T03:08:55.660Z,26.53
2023-07-18T03:09:55.635Z,27.32
2023-07-18T03:10:55.665Z,28.84
2023-07-18T03:11:55.653Z,25.00
2023-07-18T03:12:55.621Z,27.32
2023-07-18T03:13:55.656Z,29.83
2023-07-18T03:14:55.611Z,28.47
2023-07-18T03:15:55.599Z,30.31
2023-07-18T03:16:55.602Z,29.01
2023-07-18T03:17:55.632Z,30.10
2023-07-18T03:18:55.597Z,27.90
2023-07-18T03:19:55.579Z,31.35
2023-07-18T03:20:55.575Z,30.06
2023-07-18T03:21:55.569Z,29.34
2023-07-18T03:22:55.595Z,28.79
2023-07-18T03:23:55.562Z,28.28
2023-07-18T03:24:55.582Z,30.39
2023-07-18T03:25:55.562Z,30.12
2023-07-18T03:26:55.545Z,27.60
2023-07-18T03:27:55.533Z,27.53
2023-07-18T03:28:55.531Z,26.17
2023-07-18T03:29:55.532Z,26.96
2023-07-18T03:30:55.549Z,27.66
2023-07-18T03:31:55.593Z,27.99
2023-07-18T03:32:55.615Z,28.04
2023-07-18T03:33:55.588Z,27.19
2023-07-18T03:34:55.658Z,27.86
2023-07-18T03:35:55.588Z,26.90
2023-07-18T03:36:55.588Z,28.38
2023-07-18T03:37:55.625Z,30.50
2023-07-18T03:38:55.606Z,29.62
2023-07-18T03:39:55.631Z,30.99
2023-07-18T03:40:55.643Z,29.97
2023-07-18T03:41:55.645Z,28.69
2023-07-18T03:42:55.659Z,28.45
2023-07-18T03:43:55.678Z,27.57
2023-07-18T03:44:55.700Z,31.37
2023-07-18T03:45:55.735Z,28.33
2023-07-18T03:47:02.478Z,31.97
2023-07-18T03:47:56.749Z,32.05
2023-07-18T03:48:55.776Z,29.90
2023-07-18T03:49:55.703Z,29.19
2023-07-18T03:50:55.712Z,27.51
2023-07-18T03:51:55.681Z,26.00
2023-07-18T03:52:55.682Z,27.03
2023-07-18T03:53:55.690Z,27.60
2023-07-18T03:54:55.671Z,27.06
2023-07-18T03:55:57.534Z,27.91
2023-07-18T03:56:55.653Z,27.93
2023-07-18T03:57:55.639Z,25.82
2023-07-18T03:58:55.638Z,26.92
2023-07-18T03:59:55.657Z,29.03
2023-07-18T04:00:55.611Z,26.57
2023-07-18T04:01:55.631Z,28.99
2023-07-18T04:02:55.699Z,29.35
2023-07-18T04:03:55.632Z,27.28
2023-07-18T04:04:55.582Z,31.23
2023-07-18T04:05:55.570Z,27.92
2023-07-18T04:06:55.560Z,25.00
2023-07-18T04:07:55.576Z,29.73
2023-07-18T04:08:55.650Z,28.69
2023-07-18T04:09:55.569Z,25.49
2023-07-18T04:10:55.547Z,30.70
2023-07-18T04:11:55.581Z,30.11
2023-07-18T04:12:55.587Z,31.23
2023-07-18T04:13:55.616Z,27.18
2023-07-18T04:14:55.649Z,29.54
2023-07-18T04:15:55.706Z,28.61
2023-07-18T04:16:55.687Z,29.29
2023-07-18T04:17:55.746Z,25.99
2023-07-18T04:18:55.715Z,26.36
2023-07-18T04:19:55.820Z,28.65
2023-07-18T04:20:55.762Z,26.25
2023-07-18T04:21:55.789Z,31.84
2023-07-18T04:22:55.841Z,29.59
2023-07-18T04:23:55.808Z,30.31
2023-07-18T04:24:55.840Z,30.88
2023-07-18T04:25:55.865Z,27.23
2023-07-18T04:26:55.886Z,27.08
2023-07-18T04:27:55.901Z,28.40
2023-07-18T04:28:55.931Z,25.47
2023-07-18T04:29:55.942Z,26.66
2023-07-18T04:30:55.957Z,25.89
2023-07-18T04:31:56.039Z,26.88
2023-07-18T04:32:55.989Z,28.45
2023-07-18T04:33:56.012Z,25.86
2023-07-18T04:34:56.020Z,26.49
2023-07-18T04:35:56.023Z,27.35
2023-07-18T04:36:56.036Z,29.91
2023-07-18T04:37:56.068Z,27.88
2023-07-18T04:38:56.081Z,29.31
2023-07-18T04:39:56.097Z,30.74
2023-07-18T04:40:56.095Z,27.00
2023-07-18T04:41:56.299Z,29.32
2023-07-18T04:42:56.141Z,26.41
2023-07-18T04:43:56.144Z,26.84
2023-07-18T04:44:56.148Z,28.37
2023-07-18T04:45:56.252Z,26.25
2023-07-18T04:46:56.229Z,27.06
2023-07-18T04:47:56.290Z,30.55
2023-07-18T04:48:56.260Z,30.33
2023-07-18T04:49:56.282Z,29.13
2023-07-18T04:50:56.273Z,29.00
2023-07-18T04:51:56.266Z,27.66
2023-07-18T04:52:56.293Z,29.48
2023-07-18T04:53:56.315Z,28.56
2023-07-18T04:54:56.356Z,29.59
2023-07-18T04:55:56.313Z,28.40
2023-07-18T04:56:56.352Z,26.91
2023-07-18T04:57:56.352Z,29.75
2023-07-18T04:58:56.388Z,25.27
2023-07-18T04:59:56.409Z,32.38
2023-07-18T05:00:56.743Z,28.14
2023-07-18T05:01:56.526Z,28.35
2023-07-18T05:02:56.442Z,30.58
2023-07-18T05:03:58.258Z,27.76
2023-07-18T05:04:56.479Z,29.43
2023-07-18T05:05:56.477Z,27.98
2023-07-18T05:06:56.511Z,28.99
2023-07-18T05:07:56.546Z,28.86
2023-07-18T05:08:56.591Z,29.52
2023-07-18T05:09:56.569Z,31.37
2023-07-18T05:10:56.585Z,31.80
2023-07-18T05:11:56.618Z,29.13
2023-07-18T05:12:56.637Z,27.16
2023-07-18T05:13:56.630Z,28.56
2023-07-18T05:14:56.698Z,26.79
2023-07-18T05:15:56.695Z,28.39
2023-07-18T05:16:56.710Z,25.00
2023-07-18T05:17:56.744Z,31.09
2023-07-18T05:18:56.736Z,25.00
2023-07-18T05:19:56.754Z,27.44
2023-07-18T05:20:56.773Z,25.89
2023-07-18T05:21:56.781Z,25.00
2023-07-18T05:22:56.868Z,29.73
2023-07-18T05:23:56.795Z,30.30
2023-07-18T05:24:56.849Z,28.66
2023-07-18T05:25:56.842Z,26.91
2023-07-18T05:26:56.879Z,30.00
2023-07-18T05:27:56.887Z,27.38
2023-07-18T05:28:56.921Z,28.02
2023-07-18T05:29:56.945Z,26.25
2023-07-18T05:30:56.949Z,27.40
2023-07-18T05:31:57.038Z,27.32
2023-07-18T05:32:57.043Z,28.62
2023-07-18T05:33:57.003Z,28.72
2023-07-18T05:34:57.006Z,29.26
2023-07-18T05:35:57.052Z,31.45
2023-07-18T05:36:57.024Z,29.70
2023-07-18T05:37:57.073Z,29.32
2023-07-18T05:38:57.075Z,28.95
2023-07-18T05:39:57.103Z,29.65
2023-07-18T05:40:57.108Z,27.55
2023-07-18T05:41:57.117Z,30.13
2023-07-18T05:42:57.132Z,27.88
2023-07-18T05:43:57.128Z,29.51
2023-07-18T05:44:57.170Z,27.90
2023-07-18T05:45:57.212Z,30.84
2023-07-18T05:46:57.166Z,27.61
2023-07-18T05:47:57.225Z,27.05
2023-07-18T05:48:57.202Z,26.76
2023-07-18T05:49:57.246Z,25.00
2023-07-18T05:50:57.212Z,28.36
2023-07-18T05:51:57.239Z,30.71
2023-07-18T05:52:57.245Z,28.86
2023-07-18T05:53:57.236Z,29.12
2023-07-18T05:54:57.333Z,26.97
2023-07-18T05:55:57.286Z,29.71
2023-07-18T05:56:57.295Z,25.00
2023-07-18T05:57:57.273Z,25.00
2023-07-18T05:58:57.328Z,27.34
2023-07-18T05:59:57.330Z,28.08
2023-07-18T06:00:57.335Z,32.72
2023-07-18T06:01:57.313Z,31.50
2023-07-18T06:02:58.874Z,36.70
2023-07-18T06:03:57.390Z,36.44
2023-07-18T06:04:57.314Z,32.11
2023-07-18T06:05:57.323Z,30.44
2023-07-18T06:06:57.345Z,34.07
2023-07-18T06:07:57.326Z,30.28
2023-07-18T06:08:57.345Z,33.47
2023-07-18T06:09:57.387Z,31.38
2023-07-18T06:10:57.335Z,33.31
2023-07-18T06:11:57.351Z,33.35
2023-07-18T06:12:57.377Z,36.97
2023-07-18T06:13:57.358Z,32.02
2023-07-18T06:14:57.352Z,31.76
2023-07-18T06:15:57.369Z,33.45
2023-07-18T06:16:57.406Z,35.86
2023-07-18T06:17:57.403Z,33.48
2023-07-18T06:18:57.356Z,38.92
2023-07-18T06:19:57.354Z,34.97
2023-07-18T06:20:57.360Z,32.71
2023-07-18T06:21:57.364Z,35.11
2023-07-18T06:22:57.424Z,36.31
2023-07-18T06:24:12.740Z,34.88
2023-07-18T06:24:58.352Z,35.13
2023-07-18T06:25:57.490Z,35.41
2023-07-18T06:26:57.323Z,35.22
2023-07-18T06:27:57.337Z,33.13
2023-07-18T06:28:57.347Z,36.99
2023-07-18T06:29:57.321Z,36.10
2023-07-18T06:30:57.385Z,38.23
2023-07-18T06:31:57.300Z,33.78
2023-07-18T06:32:57.358Z,33.45
2023-07-18T06:33:57.278Z,33.00
2023-07-18T06:35:00.683Z,33.04
2023-07-18T06:35:58.309Z,33.39
2023-07-18T06:36:57.265Z,33.66
2023-07-18T06:37:57.265Z,31.89
2023-07-18T06:38:57.277Z,32.96
2023-07-18T06:39:57.251Z,31.51
2023-07-18T06:40:57.245Z,30.96
2023-07-18T06:41:57.252Z,29.55
2023-07-18T06:42:57.249Z,27.46
2023-07-18T06:43:57.257Z,27.16
2023-07-18T06:44:57.218Z,31.30
2023-07-18T06:45:57.220Z,25.71
2023-07-18T06:46:57.271Z,25.00
2023-07-18T06:47:57.288Z,30.24
2023-07-18T06:48:57.188Z,29.41
2023-07-18T06:49:57.182Z,30.82
2023-07-18T06:50:57.177Z,34.06
2023-07-18T06:51:57.164Z,30.77
2023-07-18T06:52:57.161Z,30.73
2023-07-18T06:53:57.139Z,31.62
2023-07-18T06:54:57.133Z,27.15
2023-07-18T06:55:57.158Z,29.62
2023-07-18T06:56:57.130Z,32.47
2023-07-18T06:57:57.142Z,35.98
2023-07-18T06:58:57.110Z,36.00
2023-07-18T06:59:57.136Z,32.54
2023-07-18T07:00:57.149Z,34.07
2023-07-18T07:01:57.093Z,36.56
2023-07-18T07:02:57.208Z,32.78
2023-07-18T07:03:57.269Z,32.77
2023-07-18T07:04:57.064Z,30.31
2023-07-18T07:05:57.078Z,32.96
2023-07-18T07:06:57.052Z,34.92
2023-07-18T07:07:57.062Z,29.88
2023-07-18T07:08:57.033Z,27.20
2023-07-18T07:09:57.039Z,29.35
2023-07-18T07:10:57.038Z,28.56
2023-07-18T07:11:57.014Z,31.35
2023-07-18T07:12:58.313Z,29.38
2023-07-18T07:13:57.047Z,25.46
2023-07-18T07:14:57.010Z,30.10
2023-07-18T07:15:57.015Z,29.84
2023-07-18T07:16:57.020Z,31.51
2023-07-18T07:17:57.052Z,32.18
2023-07-18T07:18:56.996Z,34.09
2023-07-18T07:19:56.990Z,30.19
2023-07-18T07:20:56.989Z,33.37
2023-07-18T07:21:56.949Z,28.26
2023-07-18T07:22:56.962Z,33.50
2023-07-18T07:23:58.110Z,30.19
2023-07-18T07:24:56.947Z,32.28
2023-07-18T07:25:56.966Z,35.18
2023-07-18T07:26:56.911Z,33.93
2023-07-18T07:27:56.944Z,35.35
2023-07-18T07:28:56.952Z,30.67
2023-07-18T07:29:56.914Z,29.70
2023-07-18T07:30:56.945Z,34.74
2023-07-18T07:31:56.880Z,30.50
2023-07-18T07:32:56.957Z,27.96
2023-07-18T07:33:56.882Z,28.53
2023-07-18T07:34:56.859Z,29.24
2023-07-18T07:35:56.889Z,33.24
2023-07-18T07:36:56.899Z,33.34
2023-07-18T07:37:56.892Z,30.43
2023-07-18T07:38:56.920Z,32.57
2023-07-18T07:39:56.901Z,31.87
2023-07-18T07:40:56.917Z,29.97
2023-07-18T07:41:56.889Z,33.94
2023-07-18T07:42:56.889Z,33.17
2023-07-18T07:43:56.928Z,35.17
2023-07-18T07:44:57.450Z,36.14
2023-07-18T07:45:56.970Z,35.97
2023-07-18T07:46:56.966Z,35.85
2023-07-18T07:47:56.916Z,32.13
2023-07-18T07:48:56.910Z,30.74
2023-07-18T07:49:56.922Z,31.01
2023-07-18T07:50:56.951Z,31.97
2023-07-18T07:51:56.913Z,32.09
2023-07-18T07:52:56.925Z,35.23
2023-07-18T07:53:56.917Z,30.66
2023-07-18T07:54:56.956Z,33.80
2023-07-18T07:55:56.954Z,30.38
2023-07-18T07:56:56.956Z,37.38
2023-07-18T07:57:56.948Z,34.51
2023-07-18T07:59:10.440Z,29.04
2023-07-18T07:59:57.929Z,29.36
2023-07-18T08:00:56.969Z,29.63
2023-07-18T08:01:56.990Z,30.75
2023-07-18T08:02:56.945Z,32.82
2023-07-18T08:03:56.960Z,35.59
2023-07-18T08:04:56.949Z,34.74
2023-07-18T08:05:56.925Z,34.37
2023-07-18T08:06:56.872Z,29.39
2023-07-18T08:07:56.882Z,34.43
2023-07-18T08:08:56.867Z,35.05
2023-07-18T08:09:56.867Z,38.38
2023-07-18T08:10:56.875Z,35.63
2023-07-18T08:11:56.838Z,32.95
2023-07-18T08:12:56.841Z,34.61
2023-07-18T08:13:56.944Z,32.66
2023-07-18T08:14:56.848Z,31.64
2023-07-18T08:15:56.859Z,31.94
2023-07-18T08:16:56.808Z,35.21
2023-07-18T08:17:56.888Z,31.16
2023-07-18T08:18:56.786Z,35.03
2023-07-18T08:19:56.803Z,30.82
2023-07-18T08:20:56.784Z,30.77
2023-07-18T08:21:56.937Z,33.17
2023-07-18T08:22:56.871Z,28.01
2023-07-18T08:23:56.766Z,32.08
2023-07-18T08:24:56.814Z,33.00
2023-07-18T08:25:56.750Z,33.95
2023-07-18T08:26:56.755Z,32.01
2023-07-18T08:27:56.745Z,29.72
2023-07-18T08:28:56.746Z,32.24
2023-07-18T08:29:56.735Z,29.52
2023-07-18T08:30:56.745Z,28.93
2023-07-18T08:31:56.730Z,26.69
2023-07-18T08:32:56.738Z,30.88
2023-07-18T08:33:56.796Z,35.68
2023-07-18T08:34:56.691Z,36.21
2023-07-18T08:35:56.705Z,38.23
2023-07-18T08:36:56.705Z,39.35
2023-07-18T08:37:56.700Z,37.73
2023-07-18T08:38:56.717Z,34.84
2023-07-18T08:39:56.728Z,32.11
